This is the latest recevied weather packets stored in our database for station/object KG4IFE-13. If no packets are shown the sender has not sent any weather packets the latest 10 day(s).
| Time | Temp. | Humidity | Pressure | Rain* | Wind** | Luminosity | Snow |
|---|---|---|---|---|---|---|---|
| 1777902066 | 14.44° C | 58% | 1016.5 hPa | - | - | - | - |
| 1777901484 | 14.44° C | 57% | 1016.5 hPa | - | - | - | - |
| 1777900862 | 15° C | 56% | 1016.4 hPa | - | - | - | - |
| 1777899959 | 15° C | 57% | 1016.3 hPa | - | - | - | - |
| 1777899658 | 14.44° C | 58% | 1016.4 hPa | - | - | - | - |
| 1777899360 | 14.44° C | 58% | 1016.4 hPa | - | - | - | - |
| 1777898755 | 14.44° C | 59% | 1016.3 hPa | - | - | - | - |
| 1777898455 | 13.89° C | 59% | 1016.4 hPa | - | - | - | - |
| 1777896047 | 11.11° C | 68% | 1016.5 hPa | - | - | - | - |
| 1777894241 | 9.44° C | 72% | 1016.5 hPa | - | - | - | - |
| 1777893036 | 9.44° C | 73% | 1016.5 hPa | - | - | - | - |
| 1777890329 | 8.89° C | 71% | 1016.3 hPa | - | - | - | - |
| 1777889444 | 9.44° C | 70% | 1016.3 hPa | - | - | - | - |
| 1777888521 | 9.44° C | 70% | 1016.4 hPa | - | - | - | - |
| 1777886414 | 10° C | 64% | 1016.3 hPa | - | - | - | - |
| 1777884910 | 10.56° C | 62% | 1016 hPa | - | - | - | - |
| 1777884309 | 10.56° C | 62% | 1016 hPa | - | - | - | - |
| 1777882802 | 10° C | 61% | 1016.4 hPa | - | - | - | - |
| 1777882201 | 10° C | 61% | 1016.4 hPa | - | - | - | - |
| 1777881899 | 10° C | 61% | 1016.4 hPa | - | - | - | - |
| 1777881598 | 10° C | 62% | 1016.4 hPa | - | - | - | - |
| 1777880094 | 9.44° C | 62% | 1016.5 hPa | - | - | - | - |
| 1777879190 | 9.44° C | 64% | 1016.4 hPa | - | - | - | - |
| 1777875879 | 10° C | 65% | 1016.8 hPa | - | - | - | - |
| 1777875598 | 10° C | 64% | 1016.8 hPa | - | - | - | - |
* Rain since midnight (hover to see other rain measurements)
** Current wind speed in m/s (hover to see current wind gust speed)